createdAt,value
2022-11-11T00:00:10.718Z,21.96
2022-11-11T00:00:40.832Z,21.96
2022-11-11T00:01:10.807Z,21.94
2022-11-11T00:01:40.777Z,21.94
2022-11-11T00:02:10.792Z,21.96
2022-11-11T00:02:40.796Z,21.93
2022-11-11T00:03:10.894Z,21.93
2022-11-11T00:03:40.898Z,21.91
2022-11-11T00:04:10.900Z,21.93
2022-11-11T00:04:40.864Z,21.93
2022-11-11T00:05:10.846Z,21.94
2022-11-11T00:05:40.821Z,21.91
2022-11-11T00:06:10.793Z,21.93
2022-11-11T00:06:40.788Z,21.91
2022-11-11T00:07:10.854Z,21.91
2022-11-11T00:07:40.833Z,21.91
2022-11-11T00:08:10.810Z,21.91
2022-11-11T00:08:40.801Z,21.91
2022-11-11T00:09:10.767Z,21.93
2022-11-11T00:09:40.739Z,21.90
2022-11-11T00:10:10.712Z,21.91
2022-11-11T00:10:40.807Z,21.91
2022-11-11T00:11:10.769Z,21.91
2022-11-11T00:11:40.730Z,21.90
2022-11-11T00:12:10.701Z,21.91
2022-11-11T00:12:40.676Z,21.90
2022-11-11T00:13:10.654Z,21.91
2022-11-11T00:13:40.631Z,21.90
2022-11-11T00:14:10.588Z,21.91
2022-11-11T00:14:40.563Z,21.91
2022-11-11T00:15:10.558Z,21.93
2022-11-11T00:15:40.528Z,21.90
2022-11-11T00:16:10.504Z,21.91
2022-11-11T00:16:40.460Z,21.90
2022-11-11T00:17:10.433Z,21.91
2022-11-11T00:17:40.405Z,21.88
2022-11-11T00:18:10.429Z,21.88
2022-11-11T00:18:40.440Z,21.88
2022-11-11T00:19:10.417Z,21.88
2022-11-11T00:19:40.388Z,21.85
2022-11-11T00:20:10.375Z,21.88
2022-11-11T00:20:44.426Z,21.84
2022-11-11T00:21:14.869Z,21.90
2022-11-11T00:21:44.855Z,21.85
2022-11-11T00:22:14.860Z,21.88
2022-11-11T00:22:44.865Z,21.85
2022-11-11T00:23:14.840Z,21.85
2022-11-11T00:23:44.869Z,21.84
2022-11-11T00:24:14.871Z,21.85
2022-11-11T00:24:44.876Z,21.85
2022-11-11T00:25:14.966Z,21.85
2022-11-11T00:25:45.241Z,21.84
2022-11-11T00:26:38.606Z,21.82
2022-11-11T00:26:50.298Z,21.82
2022-11-11T00:27:20.372Z,21.82
2022-11-11T00:27:50.333Z,21.82
2022-11-11T00:28:20.580Z,21.84
2022-11-11T00:28:50.682Z,21.82
2022-11-11T00:29:20.707Z,21.82
2022-11-11T00:29:50.751Z,21.81
2022-11-11T00:30:20.792Z,21.81
2022-11-11T00:30:50.839Z,21.80
2022-11-11T00:31:20.855Z,21.80
2022-11-11T00:31:50.820Z,21.81
2022-11-11T00:32:20.821Z,21.81
2022-11-11T00:32:50.806Z,21.81
2022-11-11T00:33:20.777Z,21.81
2022-11-11T00:33:50.826Z,21.81
2022-11-11T00:34:20.819Z,21.81
2022-11-11T00:34:50.785Z,21.80
2022-11-11T00:35:20.756Z,21.82
2022-11-11T00:35:50.772Z,21.81
2022-11-11T00:36:20.782Z,21.81
2022-11-11T00:36:50.756Z,21.80
2022-11-11T00:37:20.777Z,21.81
2022-11-11T00:37:50.813Z,21.81
2022-11-11T00:38:20.937Z,21.80
2022-11-11T00:38:51.111Z,21.80
2022-11-11T00:39:21.085Z,21.80
2022-11-11T00:39:51.065Z,21.81
2022-11-11T00:40:21.078Z,21.81
2022-11-11T00:40:51.255Z,21.80
2022-11-11T00:41:21.244Z,21.80
2022-11-11T00:41:51.332Z,21.78
2022-11-11T00:42:21.408Z,21.80
2022-11-11T00:42:51.372Z,21.78
2022-11-11T00:43:21.339Z,21.80
2022-11-11T00:43:51.405Z,21.77
2022-11-11T00:44:21.507Z,21.77
2022-11-11T00:44:51.561Z,21.77
2022-11-11T00:45:21.574Z,21.77
2022-11-11T00:45:51.615Z,21.75
2022-11-11T00:46:21.617Z,21.77
2022-11-11T00:46:51.630Z,21.77
2022-11-11T00:47:21.600Z,21.77
2022-11-11T00:47:51.577Z,21.75
2022-11-11T00:48:21.845Z,21.78
2022-11-11T00:48:52.153Z,21.75
2022-11-11T00:49:22.633Z,21.77
2022-11-11T00:49:52.641Z,21.77
2022-11-11T00:50:22.605Z,21.75
2022-11-11T00:50:52.592Z,21.75
2022-11-11T00:51:22.562Z,21.77
2022-11-11T00:51:52.649Z,21.77
2022-11-11T00:52:22.704Z,21.77
2022-11-11T00:52:52.669Z,21.75
2022-11-11T00:53:26.715Z,21.75
2022-11-11T00:53:57.199Z,21.75
2022-11-11T00:54:27.248Z,21.75
2022-11-11T00:54:57.221Z,21.75
2022-11-11T00:55:27.282Z,21.75
2022-11-11T00:55:57.373Z,21.74
2022-11-11T00:56:27.448Z,21.74
2022-11-11T00:56:57.445Z,21.74
2022-11-11T00:57:27.418Z,21.74
2022-11-11T00:57:57.475Z,21.74
2022-11-11T00:58:28.085Z,21.74
2022-11-11T00:58:58.436Z,21.74
2022-11-11T00:59:28.505Z,21.75
2022-11-11T00:59:58.525Z,21.74
2022-11-11T01:00:28.570Z,21.74
2022-11-11T01:00:58.756Z,21.73
2022-11-11T01:01:28.780Z,21.74
2022-11-11T01:01:58.891Z,21.73
2022-11-11T01:02:29.042Z,21.74
2022-11-11T01:02:59.221Z,21.73
2022-11-11T01:03:29.239Z,21.75
2022-11-11T01:03:59.247Z,21.73
2022-11-11T01:04:29.352Z,21.74
2022-11-11T01:04:59.396Z,21.73
2022-11-11T01:05:29.478Z,21.73
2022-11-11T01:05:59.506Z,21.69
2022-11-11T01:06:29.510Z,21.71
2022-11-11T01:06:59.588Z,21.71
2022-11-11T01:07:29.751Z,21.71
2022-11-11T01:07:59.885Z,21.73
2022-11-11T01:08:29.867Z,21.71
2022-11-11T01:08:59.986Z,21.71
2022-11-11T01:09:29.994Z,21.73
2022-11-11T01:10:00.116Z,21.71
2022-11-11T01:10:30.208Z,21.69
2022-11-11T01:11:00.297Z,21.67
2022-11-11T01:11:30.286Z,21.69
2022-11-11T01:12:00.311Z,21.69
2022-11-11T01:12:30.380Z,21.69
2022-11-11T01:13:00.402Z,21.69
2022-11-11T01:13:30.434Z,21.71
2022-11-11T01:14:00.477Z,21.69
2022-11-11T01:14:30.548Z,21.67
2022-11-11T01:15:00.619Z,21.67
2022-11-11T01:15:30.589Z,21.69
2022-11-11T01:16:00.560Z,21.67
2022-11-11T01:16:30.543Z,21.69
2022-11-11T01:17:00.569Z,21.69
2022-11-11T01:17:30.548Z,21.69
2022-11-11T01:18:00.514Z,21.69
2022-11-11T01:18:30.680Z,21.71
2022-11-11T01:19:00.798Z,21.67
2022-11-11T01:19:30.829Z,21.69
2022-11-11T01:20:00.924Z,21.67
2022-11-11T01:20:31.081Z,21.69
2022-11-11T01:21:01.565Z,21.69
2022-11-11T01:21:31.828Z,21.67
2022-11-11T01:22:02.211Z,21.69
2022-11-11T01:22:32.263Z,21.67
2022-11-11T01:23:02.385Z,21.67
2022-11-11T01:23:32.425Z,21.67
2022-11-11T01:24:02.391Z,21.66
2022-11-11T01:24:32.480Z,21.67
2022-11-11T01:25:02.562Z,21.66
2022-11-11T01:25:32.570Z,21.66
2022-11-11T01:26:02.536Z,21.66
2022-11-11T01:26:32.745Z,21.66
2022-11-11T01:27:02.828Z,21.66
2022-11-11T01:27:32.806Z,21.66
2022-11-11T01:28:02.796Z,21.65
2022-11-11T01:28:32.907Z,21.66
2022-11-11T01:29:02.965Z,21.65
2022-11-11T01:29:33.111Z,21.65
2022-11-11T01:30:03.090Z,21.65
2022-11-11T01:30:33.135Z,21.66
2022-11-11T01:31:03.207Z,21.65
2022-11-11T01:31:33.190Z,21.65
2022-11-11T01:32:03.176Z,21.65
2022-11-11T01:32:33.356Z,21.65
2022-11-11T01:33:03.404Z,21.65
2022-11-11T01:33:33.546Z,21.66
2022-11-11T01:34:03.555Z,21.65
2022-11-11T01:34:33.655Z,21.65
2022-11-11T01:35:03.630Z,21.63
2022-11-11T01:35:33.720Z,21.63
2022-11-11T01:36:03.753Z,21.63
2022-11-11T01:36:33.840Z,21.63
2022-11-11T01:37:03.891Z,21.63
2022-11-11T01:37:33.982Z,21.63
2022-11-11T01:38:03.943Z,21.63
2022-11-11T01:38:34.021Z,21.63
2022-11-11T01:39:04.175Z,21.62
2022-11-11T01:39:34.182Z,21.63
2022-11-11T01:40:04.212Z,21.62
2022-11-11T01:40:34.225Z,21.62
2022-11-11T01:41:04.219Z,21.63
2022-11-11T01:41:34.433Z,21.62
2022-11-11T01:42:04.799Z,21.62
2022-11-11T01:42:34.823Z,21.62
2022-11-11T01:43:04.838Z,21.59
2022-11-11T01:43:34.834Z,21.60
2022-11-11T01:44:04.951Z,21.59
2022-11-11T01:44:35.018Z,21.60
2022-11-11T01:45:04.998Z,21.60
2022-11-11T01:45:35.008Z,21.62
2022-11-11T01:46:04.987Z,21.60
2022-11-11T01:46:35.059Z,21.62
2022-11-11T01:47:05.210Z,21.62
2022-11-11T01:47:35.389Z,21.60
2022-11-11T01:48:23.830Z,21.62
2022-11-11T01:48:41.117Z,21.62
2022-11-11T01:49:11.084Z,21.60
2022-11-11T01:49:41.128Z,21.62
2022-11-11T01:50:11.218Z,21.62
2022-11-11T01:50:41.193Z,21.62
2022-11-11T01:51:11.263Z,21.62
2022-11-11T01:51:41.355Z,21.62
2022-11-11T01:52:11.514Z,21.60
2022-11-11T01:52:41.532Z,21.60
2022-11-11T01:53:11.563Z,21.60
2022-11-11T01:53:41.548Z,21.60
2022-11-11T01:54:11.532Z,21.62
2022-11-11T01:54:41.638Z,21.60
2022-11-11T01:55:11.751Z,21.59
2022-11-11T01:55:41.968Z,21.60
2022-11-11T01:56:12.015Z,21.59
2022-11-11T01:56:42.019Z,21.59
2022-11-11T01:57:12.283Z,21.59
2022-11-11T01:57:42.438Z,21.59
2022-11-11T01:58:12.421Z,21.58
2022-11-11T01:58:42.404Z,21.59
2022-11-11T01:59:12.453Z,21.58
2022-11-11T01:59:42.434Z,21.58
2022-11-11T02:00:12.535Z,21.59
2022-11-11T02:00:42.661Z,21.58
2022-11-11T02:01:12.754Z,21.58
2022-11-11T02:01:42.965Z,21.58
2022-11-11T02:02:13.223Z,21.59
2022-11-11T02:02:43.483Z,21.58
2022-11-11T02:03:13.587Z,21.58
2022-11-11T02:03:43.656Z,21.58
2022-11-11T02:04:13.796Z,21.58
2022-11-11T02:04:43.903Z,21.58
2022-11-11T02:05:13.988Z,21.56
2022-11-11T02:05:44.315Z,21.58
2022-11-11T02:06:14.617Z,21.58
2022-11-11T02:06:44.677Z,21.58
2022-11-11T02:07:14.840Z,21.56
2022-11-11T02:07:44.908Z,21.56
2022-11-11T02:08:14.902Z,21.58
2022-11-11T02:08:44.884Z,21.56
2022-11-11T02:09:14.936Z,21.56
2022-11-11T02:09:44.949Z,21.56
2022-11-11T02:10:14.998Z,21.56
2022-11-11T02:10:45.102Z,21.56
2022-11-11T02:11:15.117Z,21.55
2022-11-11T02:11:45.144Z,21.56
2022-11-11T02:12:15.267Z,21.55
2022-11-11T02:12:45.234Z,21.56
2022-11-11T02:13:15.242Z,21.56
2022-11-11T02:13:45.309Z,21.58
2022-11-11T02:14:15.434Z,21.56
2022-11-11T02:14:45.556Z,21.56
2022-11-11T02:15:15.569Z,21.56
2022-11-11T02:15:45.644Z,21.58
2022-11-11T02:16:15.603Z,21.53
2022-11-11T02:16:45.681Z,21.55
2022-11-11T02:17:15.677Z,21.55
2022-11-11T02:17:45.709Z,21.55
2022-11-11T02:18:15.794Z,21.55
2022-11-11T02:18:45.931Z,21.51
2022-11-11T02:19:16.028Z,21.53
2022-11-11T02:19:46.132Z,21.55
2022-11-11T02:20:16.291Z,21.53
2022-11-11T02:20:46.365Z,21.53
2022-11-11T02:21:16.317Z,21.53
2022-11-11T02:21:46.283Z,21.55
2022-11-11T02:22:16.455Z,21.55
2022-11-11T02:22:46.520Z,21.55
2022-11-11T02:23:16.539Z,21.53
2022-11-11T02:23:46.688Z,21.53
2022-11-11T02:24:16.654Z,21.53
2022-11-11T02:24:46.694Z,21.55
2022-11-11T02:25:16.844Z,21.53
2022-11-11T02:25:46.981Z,21.53
2022-11-11T02:26:16.943Z,21.53
2022-11-11T02:26:46.926Z,21.51
2022-11-11T02:27:16.940Z,21.51
2022-11-11T02:27:47.188Z,21.51
2022-11-11T02:28:17.342Z,21.53
2022-11-11T02:28:47.430Z,21.53
2022-11-11T02:29:17.518Z,21.50
2022-11-11T02:29:47.721Z,21.50
2022-11-11T02:30:17.777Z,21.50
2022-11-11T02:30:47.825Z,21.50
2022-11-11T02:31:17.784Z,21.51
2022-11-11T02:31:47.749Z,21.50
2022-11-11T02:32:17.890Z,21.48
2022-11-11T02:32:47.959Z,21.50
2022-11-11T02:33:18.019Z,21.50
2022-11-11T02:33:48.196Z,21.51
2022-11-11T02:34:18.163Z,21.50
2022-11-11T02:34:48.361Z,21.51
2022-11-11T02:35:18.573Z,21.50
2022-11-11T02:35:48.747Z,21.50
2022-11-11T02:36:18.724Z,21.50
2022-11-11T02:36:48.716Z,21.50
2022-11-11T02:37:18.710Z,21.48
2022-11-11T02:37:48.806Z,21.50
2022-11-11T02:38:18.782Z,21.50
2022-11-11T02:38:48.797Z,21.48
2022-11-11T02:39:23.478Z,21.48
2022-11-11T02:40:05.899Z,21.50
2022-11-11T02:40:28.660Z,21.48
2022-11-11T02:40:58.674Z,21.48
2022-11-11T02:41:28.663Z,21.47
2022-11-11T02:41:58.625Z,21.48
2022-11-11T02:42:28.605Z,21.48
2022-11-11T02:42:58.738Z,21.48
2022-11-11T02:43:29.422Z,21.47
2022-11-11T02:43:59.701Z,21.48
2022-11-11T02:44:29.835Z,21.48
2022-11-11T02:44:59.973Z,21.48
2022-11-11T02:45:29.964Z,21.48
2022-11-11T02:45:59.984Z,21.48
2022-11-11T02:46:30.025Z,21.47
2022-11-11T02:47:00.060Z,21.47
2022-11-11T02:47:30.229Z,21.47
2022-11-11T02:48:00.383Z,21.47
2022-11-11T02:48:30.406Z,21.47
2022-11-11T02:49:00.375Z,21.47
2022-11-11T02:49:30.541Z,21.45
2022-11-11T02:50:00.631Z,21.47
2022-11-11T02:50:30.751Z,21.44
2022-11-11T02:51:00.843Z,21.45
2022-11-11T02:51:30.833Z,21.45
2022-11-11T02:52:00.995Z,21.47
2022-11-11T02:52:31.113Z,21.47
2022-11-11T02:53:01.321Z,21.48
2022-11-11T02:53:31.313Z,21.47
2022-11-11T02:54:01.330Z,21.47
2022-11-11T02:54:31.408Z,21.47
2022-11-11T02:55:01.478Z,21.45
2022-11-11T02:55:31.689Z,21.47
2022-11-11T02:56:01.732Z,21.47
2022-11-11T02:56:31.787Z,21.45
2022-11-11T02:57:01.801Z,21.47
2022-11-11T02:57:31.767Z,21.45
2022-11-11T02:58:01.927Z,21.45
2022-11-11T02:58:31.951Z,21.45
2022-11-11T02:59:02.125Z,21.47
2022-11-11T02:59:32.120Z,21.44
2022-11-11T03:00:02.197Z,21.45
2022-11-11T03:00:32.183Z,21.44
2022-11-11T03:01:02.152Z,21.45
2022-11-11T03:01:32.212Z,21.45
2022-11-11T03:02:02.304Z,21.44
2022-11-11T03:02:32.733Z,21.45
2022-11-11T03:03:03.156Z,21.44
2022-11-11T03:03:33.430Z,21.44
2022-11-11T03:04:03.469Z,21.45
2022-11-11T03:04:33.443Z,21.44
2022-11-11T03:05:03.492Z,21.45
2022-11-11T03:05:33.490Z,21.43
2022-11-11T03:06:03.459Z,21.45
2022-11-11T03:06:33.723Z,21.45
2022-11-11T03:07:03.882Z,21.45
2022-11-11T03:07:33.979Z,21.44
2022-11-11T03:08:04.104Z,21.44
2022-11-11T03:08:34.171Z,21.44
2022-11-11T03:09:04.301Z,21.44
2022-11-11T03:09:34.399Z,21.44
2022-11-11T03:10:04.580Z,21.44
2022-11-11T03:10:34.714Z,21.44
2022-11-11T03:11:04.879Z,21.43
2022-11-11T03:11:35.068Z,21.44
2022-11-11T03:12:05.037Z,21.44
2022-11-11T03:12:35.213Z,21.43
2022-11-11T03:13:05.321Z,21.44
2022-11-11T03:13:35.365Z,21.41
2022-11-11T03:14:05.346Z,21.41
2022-11-11T03:14:35.442Z,21.41
2022-11-11T03:15:05.402Z,21.44
2022-11-11T03:15:35.377Z,21.43
2022-11-11T03:16:05.421Z,21.43
2022-11-11T03:16:35.593Z,21.43
2022-11-11T03:17:05.775Z,21.44
2022-11-11T03:17:35.738Z,21.44
2022-11-11T03:18:05.800Z,21.43
2022-11-11T03:18:35.789Z,21.43
2022-11-11T03:19:05.771Z,21.43
2022-11-11T03:19:35.939Z,21.41
2022-11-11T03:20:05.970Z,21.41
2022-11-11T03:20:35.927Z,21.41
2022-11-11T03:21:48.997Z,21.43
2022-11-11T03:22:53.226Z,21.41
2022-11-11T03:22:55.221Z,21.41
2022-11-11T03:23:25.780Z,21.41
2022-11-11T03:23:56.037Z,21.38
2022-11-11T03:24:26.055Z,21.40
2022-11-11T03:24:56.014Z,21.40
2022-11-11T03:25:25.984Z,21.41
2022-11-11T03:25:58.445Z,21.40
2022-11-11T03:26:28.583Z,21.40
2022-11-11T03:26:58.577Z,21.40
2022-11-11T03:27:29.132Z,21.40
2022-11-11T03:27:59.146Z,21.40
2022-11-11T03:28:29.280Z,21.40
2022-11-11T03:28:59.254Z,21.40
2022-11-11T03:29:29.223Z,21.40
2022-11-11T03:29:59.184Z,21.40
2022-11-11T03:30:29.162Z,21.38
2022-11-11T03:31:03.904Z,21.38
2022-11-11T03:31:34.050Z,21.38
2022-11-11T03:32:04.032Z,21.37
2022-11-11T03:32:33.993Z,21.40
2022-11-11T03:33:03.954Z,21.38
2022-11-11T03:33:33.939Z,21.40
2022-11-11T03:34:03.916Z,21.37
2022-11-11T03:34:33.905Z,21.38
2022-11-11T03:35:03.903Z,21.38
2022-11-11T03:35:33.867Z,21.38
2022-11-11T03:36:03.870Z,21.37
2022-11-11T03:36:33.846Z,21.40
2022-11-11T03:37:03.821Z,21.38
2022-11-11T03:37:33.780Z,21.38
2022-11-11T03:38:03.763Z,21.38
2022-11-11T03:38:33.726Z,21.41
2022-11-11T03:39:03.699Z,21.38
2022-11-11T03:39:33.668Z,21.40
2022-11-11T03:40:03.633Z,21.37
2022-11-11T03:40:33.594Z,21.35
2022-11-11T03:41:03.573Z,21.37
2022-11-11T03:41:33.542Z,21.38
2022-11-11T03:42:03.509Z,21.37
2022-11-11T03:42:33.488Z,21.37
2022-11-11T03:43:05.241Z,21.37
2022-11-11T03:43:35.625Z,21.38
2022-11-11T03:44:05.601Z,21.37
2022-11-11T03:44:35.559Z,21.40
2022-11-11T03:45:05.524Z,21.38
2022-11-11T03:45:35.493Z,21.38
2022-11-11T03:46:05.470Z,21.37
2022-11-11T03:46:35.441Z,21.38
2022-11-11T03:47:05.405Z,21.37
2022-11-11T03:47:35.367Z,21.38
2022-11-11T03:48:05.332Z,21.35
2022-11-11T03:48:35.293Z,21.35
2022-11-11T03:49:05.269Z,21.37
2022-11-11T03:49:35.235Z,21.35
2022-11-11T03:50:05.208Z,21.35
2022-11-11T03:50:35.218Z,21.35
2022-11-11T03:51:05.622Z,21.38
2022-11-11T03:51:35.604Z,21.37
2022-11-11T03:52:05.579Z,21.37
2022-11-11T03:52:35.558Z,21.37
2022-11-11T03:53:05.565Z,21.37
2022-11-11T03:53:35.539Z,21.37
2022-11-11T03:54:05.502Z,21.37
2022-11-11T03:54:35.475Z,21.37
2022-11-11T03:55:05.487Z,21.35
2022-11-11T03:55:35.453Z,21.35
2022-11-11T03:56:05.428Z,21.35
2022-11-11T03:56:35.387Z,21.35
2022-11-11T03:57:05.349Z,21.34
2022-11-11T03:57:35.313Z,21.34
2022-11-11T03:58:05.298Z,21.34
2022-11-11T03:58:35.298Z,21.35
2022-11-11T03:59:05.393Z,21.35
2022-11-11T03:59:35.370Z,21.35
2022-11-11T04:00:12.070Z,21.34
2022-11-11T04:00:40.258Z,21.35
2022-11-11T04:01:10.231Z,21.35
2022-11-11T04:01:40.241Z,21.34
2022-11-11T04:02:10.288Z,21.32
2022-11-11T04:02:40.267Z,21.34
2022-11-11T04:03:10.275Z,21.34
2022-11-11T04:03:40.275Z,21.32
2022-11-11T04:04:10.254Z,21.34
2022-11-11T04:04:40.232Z,21.35
2022-11-11T04:05:10.219Z,21.35
2022-11-11T04:05:40.184Z,21.34
2022-11-11T04:06:10.162Z,21.32
2022-11-11T04:06:40.213Z,21.32
2022-11-11T04:07:10.304Z,21.34
2022-11-11T04:07:40.307Z,21.34
2022-11-11T04:08:10.279Z,21.35
2022-11-11T04:08:40.252Z,21.34
2022-11-11T04:09:10.219Z,21.30
2022-11-11T04:09:40.218Z,21.32
2022-11-11T04:10:10.188Z,21.32
2022-11-11T04:10:40.177Z,21.32
2022-11-11T04:11:10.368Z,21.32
2022-11-11T04:11:40.346Z,21.30
2022-11-11T04:12:10.320Z,21.30
2022-11-11T04:12:40.285Z,21.30
2022-11-11T04:13:10.258Z,21.29
2022-11-11T04:13:40.230Z,21.32
2022-11-11T04:14:10.319Z,21.29
2022-11-11T04:14:40.301Z,21.28
2022-11-11T04:15:10.263Z,21.28
2022-11-11T04:15:40.228Z,21.26
2022-11-11T04:16:10.207Z,21.26
2022-11-11T04:16:40.219Z,21.26
2022-11-11T04:17:10.191Z,21.25
2022-11-11T04:17:40.172Z,21.26
2022-11-11T04:18:10.137Z,21.25
2022-11-11T04:18:40.138Z,21.23
2022-11-11T04:19:10.132Z,21.25
2022-11-11T04:19:40.107Z,21.25
2022-11-11T04:20:10.070Z,21.22
2022-11-11T04:20:40.043Z,21.23
2022-11-11T04:21:10.018Z,21.22
2022-11-11T04:21:39.988Z,21.23
2022-11-11T04:22:09.963Z,21.23
2022-11-11T04:22:39.973Z,21.22
2022-11-11T04:23:09.949Z,21.23
2022-11-11T04:23:39.923Z,21.22
2022-11-11T04:24:09.894Z,21.22
2022-11-11T04:24:39.858Z,21.20
2022-11-11T04:25:09.835Z,21.22
2022-11-11T04:25:41.719Z,21.22
2022-11-11T04:26:11.851Z,21.20
2022-11-11T04:26:41.817Z,21.22
2022-11-11T04:27:11.798Z,21.20
2022-11-11T04:27:41.761Z,21.22
2022-11-11T04:28:11.742Z,21.22
2022-11-11T04:28:41.717Z,21.22
2022-11-11T04:29:11.683Z,21.20
2022-11-11T04:29:41.765Z,21.20
2022-11-11T04:30:11.728Z,21.20
2022-11-11T04:30:41.690Z,21.20
2022-11-11T04:31:11.847Z,21.20
2022-11-11T04:31:41.811Z,21.19
2022-11-11T04:32:11.786Z,21.19
2022-11-11T04:32:41.794Z,21.19
2022-11-11T04:33:11.768Z,21.19
2022-11-11T04:33:41.743Z,21.20
2022-11-11T04:34:11.726Z,21.20
2022-11-11T04:34:41.688Z,21.22
2022-11-11T04:35:11.691Z,21.20
2022-11-11T04:35:41.682Z,21.22
2022-11-11T04:36:11.648Z,21.19
2022-11-11T04:36:41.634Z,21.19
2022-11-11T04:37:11.592Z,21.18
2022-11-11T04:37:41.568Z,21.19
2022-11-11T04:38:11.529Z,21.16
2022-11-11T04:38:41.503Z,21.19
2022-11-11T04:39:11.477Z,21.19
2022-11-11T04:39:41.449Z,21.18
2022-11-11T04:40:11.408Z,21.18
2022-11-11T04:40:41.383Z,21.18
2022-11-11T04:41:11.361Z,21.18
2022-11-11T04:42:06.459Z,21.18
2022-11-11T04:42:16.257Z,21.16
2022-11-11T04:42:46.221Z,21.19
2022-11-11T04:43:16.201Z,21.18
2022-11-11T04:43:46.187Z,21.18
2022-11-11T04:44:16.159Z,21.16
2022-11-11T04:44:46.286Z,21.18
2022-11-11T04:45:16.253Z,21.18
2022-11-11T04:45:46.224Z,21.18
2022-11-11T04:46:16.199Z,21.16
2022-11-11T04:46:46.206Z,21.18
2022-11-11T04:47:16.178Z,21.18
2022-11-11T04:47:46.158Z,21.16
2022-11-11T04:48:16.131Z,21.16
2022-11-11T04:48:46.102Z,21.18
2022-11-11T04:49:16.074Z,21.16
2022-11-11T04:49:46.047Z,21.19
2022-11-11T04:50:16.018Z,21.18
2022-11-11T04:50:45.982Z,21.18
2022-11-11T04:51:16.285Z,21.18
2022-11-11T04:51:46.256Z,21.19
2022-11-11T04:52:16.231Z,21.18
2022-11-11T04:52:46.195Z,21.18
2022-11-11T04:53:16.157Z,21.16
2022-11-11T04:53:46.130Z,21.16
2022-11-11T04:54:16.103Z,21.16
2022-11-11T04:54:46.071Z,21.18
2022-11-11T04:55:21.461Z,21.18
2022-11-11T04:55:50.967Z,21.16
2022-11-11T04:56:20.936Z,21.16
2022-11-11T04:56:50.907Z,21.18
2022-11-11T04:57:20.885Z,21.14
2022-11-11T04:57:50.853Z,21.16
2022-11-11T04:58:20.819Z,21.16
2022-11-11T04:58:50.787Z,21.18
2022-11-11T04:59:20.748Z,21.16
2022-11-11T04:59:50.842Z,21.16
2022-11-11T05:00:20.803Z,21.14
2022-11-11T05:00:50.803Z,21.14
2022-11-11T05:01:20.838Z,21.13
2022-11-11T05:01:50.838Z,21.13
2022-11-11T05:02:20.803Z,21.13
2022-11-11T05:02:50.779Z,21.13
2022-11-11T05:03:20.886Z,21.11
2022-11-11T05:03:50.904Z,21.14
2022-11-11T05:04:20.890Z,21.11
2022-11-11T05:04:50.853Z,21.13
2022-11-11T05:05:20.865Z,21.13
2022-11-11T05:05:50.832Z,21.14
2022-11-11T05:06:20.801Z,21.11
2022-11-11T05:06:52.801Z,21.11
2022-11-11T05:07:24.007Z,21.13
2022-11-11T05:07:53.986Z,21.13
2022-11-11T05:08:23.958Z,21.10
2022-11-11T05:08:53.930Z,21.11
2022-11-11T05:09:23.910Z,21.11
2022-11-11T05:09:53.881Z,21.13
2022-11-11T05:10:23.858Z,21.11
2022-11-11T05:10:53.833Z,21.11
2022-11-11T05:11:23.880Z,21.10
2022-11-11T05:11:53.865Z,21.11
2022-11-11T05:12:23.826Z,21.11
2022-11-11T05:12:53.804Z,21.11
2022-11-11T05:13:24.210Z,21.13
2022-11-11T05:13:54.210Z,21.11
2022-11-11T05:14:24.189Z,21.10
2022-11-11T05:14:54.276Z,21.11
2022-11-11T05:15:24.244Z,21.11
2022-11-11T05:15:54.207Z,21.10
2022-11-11T05:16:24.220Z,21.08
2022-11-11T05:16:54.229Z,21.08
2022-11-11T05:17:24.202Z,21.07
2022-11-11T05:17:54.202Z,21.08
2022-11-11T05:18:24.182Z,21.08
2022-11-11T05:18:54.190Z,21.10
2022-11-11T05:19:24.187Z,21.08
2022-11-11T05:19:54.171Z,21.10
2022-11-11T05:20:24.141Z,21.08
2022-11-11T05:20:54.116Z,21.10
2022-11-11T05:21:24.076Z,21.10
2022-11-11T05:21:54.049Z,21.08
2022-11-11T05:22:24.015Z,21.10
2022-11-11T05:22:54.005Z,21.10
2022-11-11T05:23:24.396Z,21.08
2022-11-11T05:23:54.596Z,21.08
2022-11-11T05:24:24.563Z,21.08
2022-11-11T05:24:54.530Z,21.08
2022-11-11T05:25:24.503Z,21.08
2022-11-11T05:25:54.460Z,21.08
2022-11-11T05:26:28.172Z,21.07
2022-11-11T05:26:59.354Z,21.07
2022-11-11T05:27:29.323Z,21.10
2022-11-11T05:27:59.313Z,21.10
2022-11-11T05:28:29.275Z,21.07
2022-11-11T05:28:59.285Z,21.08
2022-11-11T05:29:29.258Z,21.08
2022-11-11T05:29:59.361Z,21.07
2022-11-11T05:30:29.327Z,21.08
2022-11-11T05:30:59.301Z,21.07
2022-11-11T05:31:29.335Z,21.10
2022-11-11T05:31:59.345Z,21.10
2022-11-11T05:32:29.363Z,21.08
2022-11-11T05:32:59.334Z,21.08
2022-11-11T05:33:29.307Z,21.10
2022-11-11T05:33:59.307Z,21.11
2022-11-11T05:34:29.303Z,21.11
2022-11-11T05:34:59.283Z,21.13
2022-11-11T05:35:29.243Z,21.14
2022-11-11T05:35:59.216Z,21.18
2022-11-11T05:36:29.188Z,21.22
2022-11-11T05:36:59.174Z,21.26
2022-11-11T05:37:29.153Z,21.29
2022-11-11T05:37:59.114Z,21.32
2022-11-11T05:38:29.092Z,21.35
2022-11-11T05:38:59.059Z,21.41
2022-11-11T05:39:29.031Z,21.44
2022-11-11T05:39:59.007Z,21.45
2022-11-11T05:40:28.997Z,21.48
2022-11-11T05:40:58.959Z,21.47
2022-11-11T05:41:28.932Z,21.47
2022-11-11T05:41:58.907Z,21.43
2022-11-11T05:42:28.875Z,21.41
2022-11-11T05:42:58.837Z,21.45
2022-11-11T05:43:28.817Z,21.44
2022-11-11T05:43:58.783Z,21.47
2022-11-11T05:44:28.755Z,21.47
2022-11-11T05:44:58.727Z,21.48
2022-11-11T05:45:28.831Z,21.56
2022-11-11T05:45:58.794Z,21.60
2022-11-11T05:46:28.758Z,21.66
2022-11-11T05:46:58.729Z,21.77
2022-11-11T05:47:28.695Z,21.82
2022-11-11T05:47:58.668Z,21.94
2022-11-11T05:48:28.638Z,22.03
2022-11-11T05:48:58.611Z,22.15
2022-11-11T05:49:28.566Z,22.18
2022-11-11T05:49:58.529Z,22.23
2022-11-11T05:50:28.548Z,22.30
2022-11-11T05:50:58.547Z,22.37
2022-11-11T05:51:28.653Z,22.43
2022-11-11T05:51:58.628Z,22.49
2022-11-11T05:52:28.591Z,22.52
2022-11-11T05:52:58.563Z,22.51
2022-11-11T05:53:28.525Z,22.41
2022-11-11T05:53:58.538Z,22.38
2022-11-11T05:54:28.522Z,22.38
2022-11-11T05:54:58.486Z,22.36
2022-11-11T05:55:28.462Z,22.33
2022-11-11T05:55:58.430Z,22.30
2022-11-11T05:56:28.400Z,22.23
2022-11-11T05:56:58.379Z,22.23
2022-11-11T05:57:28.373Z,22.18
2022-11-11T05:57:58.343Z,22.16
2022-11-11T05:58:28.303Z,22.28
2022-11-11T05:58:58.271Z,22.31
2022-11-11T05:59:28.229Z,22.33
2022-11-11T05:59:58.242Z,22.31
2022-11-11T06:00:28.212Z,22.28
2022-11-11T06:00:58.308Z,22.25
2022-11-11T06:01:28.346Z,22.21
2022-11-11T06:01:58.420Z,22.25
2022-11-11T06:02:28.465Z,22.23
2022-11-11T06:02:58.437Z,22.25
2022-11-11T06:03:28.426Z,22.28
2022-11-11T06:03:58.392Z,22.30
2022-11-11T06:04:28.365Z,22.31
2022-11-11T06:04:58.327Z,22.38
2022-11-11T06:05:28.289Z,22.40
2022-11-11T06:05:58.263Z,22.40
2022-11-11T06:06:28.238Z,22.40
2022-11-11T06:06:58.316Z,22.41
2022-11-11T06:07:28.325Z,22.41
2022-11-11T06:07:58.322Z,22.46
2022-11-11T06:08:28.314Z,22.46
2022-11-11T06:08:58.274Z,22.48
2022-11-11T06:09:28.253Z,22.51
2022-11-11T06:09:58.268Z,22.52
2022-11-11T06:10:28.242Z,22.53
2022-11-11T06:10:58.253Z,22.53
2022-11-11T06:11:32.422Z,22.55
2022-11-11T06:12:02.900Z,22.59
2022-11-11T06:12:32.887Z,22.62
2022-11-11T06:13:02.880Z,22.64
2022-11-11T06:13:32.864Z,22.67
2022-11-11T06:14:02.834Z,22.71
2022-11-11T06:14:32.812Z,22.70
2022-11-11T06:15:02.790Z,22.73
2022-11-11T06:15:32.789Z,22.73
2022-11-11T06:16:02.877Z,22.76
2022-11-11T06:16:32.840Z,22.76
2022-11-11T06:17:02.797Z,22.77
2022-11-11T06:17:32.777Z,22.81
2022-11-11T06:18:02.744Z,22.83
2022-11-11T06:18:32.708Z,22.81
2022-11-11T06:19:02.674Z,22.83
2022-11-11T06:19:32.642Z,22.83
2022-11-11T06:20:02.635Z,22.88
2022-11-11T06:20:32.598Z,22.88
2022-11-11T06:21:02.573Z,22.89
2022-11-11T06:21:32.541Z,22.91
2022-11-11T06:22:02.514Z,22.89
2022-11-11T06:22:32.501Z,22.91
2022-11-11T06:23:02.464Z,22.92
2022-11-11T06:23:32.473Z,22.93
2022-11-11T06:24:02.439Z,22.95
2022-11-11T06:24:32.399Z,22.96
2022-11-11T06:25:02.364Z,23.03
2022-11-11T06:25:32.328Z,23.03
2022-11-11T06:26:02.287Z,23.04
2022-11-11T06:26:32.245Z,23.06
2022-11-11T06:27:02.219Z,23.10
2022-11-11T06:27:32.206Z,23.08
2022-11-11T06:28:02.185Z,23.10
2022-11-11T06:28:32.161Z,23.07